Time,TemperatureF,DewpointF,PressureIn,WindDirection,WindDirectionDegrees,WindSpeedMPH,WindSpeedGustMPH,Humidity,HourlyPrecipIn,Conditions,Clouds,dailyrainin,SolarRadiationWatts/m^2,SoftwareType,DateUTC
2013-06-25 00:02:00,83.5,45.0,-100.00,South,188,6.0,10.0,26,0.00,,,0.00,0.0,meteohub,2013-06-25 04:02:00,
2013-06-25 00:07:00,83.5,43.0,-100.00,SSE,148,2.0,10.0,24,0.00,,,0.00,0.0,meteohub,2013-06-25 04:07:00,
2013-06-25 00:12:00,83.3,44.8,-100.00,South,171,4.0,10.0,26,0.00,,,0.00,0.0,meteohub,2013-06-25 04:12:00,
2013-06-25 00:17:00,83.3,46.8,-100.00,South,186,5.0,10.0,28,0.00,,,0.00,0.0,meteohub,2013-06-25 04:17:00,
2013-06-25 00:22:00,83.3,44.8,-100.00,South,187,0.0,10.0,26,0.00,,,0.00,0.0,meteohub,2013-06-25 04:22:00,
2013-06-25 00:27:00,83.1,43.7,-100.00,SSE,147,3.0,10.0,25,0.00,,,0.00,0.0,meteohub,2013-06-25 04:27:00,
2013-06-25 00:32:00,83.1,44.6,-100.00,South,169,3.0,10.0,26,0.00,,,0.00,0.0,meteohub,2013-06-25 04:32:00,
2013-06-25 00:37:00,83.3,45.9,-100.00,South,174,3.0,10.0,27,0.00,,,0.00,0.0,meteohub,2013-06-25 04:37:00,
2013-06-25 00:42:00,82.9,46.4,-100.00,SE,140,4.0,10.0,28,0.00,,,0.00,0.0,meteohub,2013-06-25 04:42:00,
2013-06-25 00:47:00,82.8,48.2,-100.00,SSE,152,2.0,10.0,30,0.00,,,0.00,0.0,meteohub,2013-06-25 04:47:00,
2013-06-25 00:52:00,83.1,43.7,-100.00,SSE,156,0.0,7.0,25,0.00,,,0.00,0.0,meteohub,2013-06-25 04:52:00,
2013-06-25 00:57:00,83.5,41.7,-100.00,SSW,205,6.0,7.0,23,0.00,,,0.00,0.0,meteohub,2013-06-25 04:57:00,
2013-06-25 01:02:00,83.5,43.0,-100.00,ESE,115,8.0,8.0,24,0.00,,,0.00,0.0,meteohub,2013-06-25 05:02:00,
2013-06-25 01:07:00,83.5,43.0,-100.00,South,183,5.0,7.0,24,0.00,,,0.00,0.0,meteohub,2013-06-25 05:07:00,
2013-06-25 01:12:00,83.1,43.7,-100.00,South,189,2.0,7.0,25,0.00,,,0.00,0.0,meteohub,2013-06-25 05:12:00,
2013-06-25 01:17:00,83.3,41.7,-100.00,SE,138,1.0,7.0,23,0.00,,,0.00,0.0,meteohub,2013-06-25 05:17:00,
2013-06-25 01:22:00,83.7,39.6,-100.00,SSW,202,3.0,7.0,21,0.00,,,0.00,0.0,meteohub,2013-06-25 05:22:00,
2013-06-25 01:27:00,83.8,38.5,-100.00,SSE,165,1.0,7.0,20,0.00,,,0.00,0.0,meteohub,2013-06-25 05:27:00,
2013-06-25 01:32:00,83.7,38.3,-100.00,SSE,150,4.0,10.0,20,0.00,,,0.00,0.0,meteohub,2013-06-25 05:32:00,
2013-06-25 01:37:00,83.8,34.3,-100.00,South,178,2.0,10.0,17,0.00,,,0.00,0.0,meteohub,2013-06-25 05:37:00,
2013-06-25 01:42:00,83.7,31.1,-100.00,SSE,148,4.0,10.0,15,0.00,,,0.00,0.0,meteohub,2013-06-25 05:42:00,
2013-06-25 01:47:00,83.5,29.3,-100.00,SSW,197,2.0,10.0,14,0.00,,,0.00,0.0,meteohub,2013-06-25 05:47:00,
2013-06-25 01:52:00,82.9,37.8,-100.00,SSW,202,2.0,10.0,20,0.00,,,0.00,0.0,meteohub,2013-06-25 05:52:00,
2013-06-25 01:57:00,82.8,37.6,-100.00,South,171,1.0,11.0,20,0.00,,,0.00,0.0,meteohub,2013-06-25 05:57:00,
2013-06-25 02:02:00,82.8,37.6,-100.00,SSW,211,0.0,11.0,20,0.00,,,0.00,0.0,meteohub,2013-06-25 06:02:00,
2013-06-25 02:07:00,82.9,35.1,-100.00,SE,138,1.0,11.0,18,0.00,,,0.00,0.0,meteohub,2013-06-25 06:07:00,
2013-06-25 02:12:00,82.9,30.6,-100.00,SE,146,0.0,11.0,15,0.00,,,0.00,0.0,meteohub,2013-06-25 06:12:00,
2013-06-25 02:22:00,83.3,27.3,-100.00,SSE,153,0.0,11.0,13,0.00,,,0.00,0.0,meteohub,2013-06-25 06:22:00,
2013-06-25 02:27:00,83.3,27.3,-100.00,South,169,3.0,3.0,13,0.00,,,0.00,0.0,meteohub,2013-06-25 06:27:00,
2013-06-25 02:32:00,83.1,28.9,-100.00,SSW,202,7.0,7.0,14,0.00,,,0.00,0.0,meteohub,2013-06-25 06:32:00,
2013-06-25 02:37:00,83.5,29.3,-100.00,SSE,163,0.0,3.0,14,0.00,,,0.00,0.0,meteohub,2013-06-25 06:37:00,
2013-06-25 02:42:00,83.7,27.7,-100.00,SSE,153,3.0,3.0,13,0.00,,,0.00,0.0,meteohub,2013-06-25 06:42:00,
2013-06-25 02:47:00,83.7,29.5,-100.00,South,185,5.0,5.0,14,0.00,,,0.00,0.0,meteohub,2013-06-25 06:47:00,
2013-06-25 02:52:00,83.5,29.3,-100.00,SSE,161,3.0,3.0,14,0.00,,,0.00,0.0,meteohub,2013-06-25 06:52:00,
2013-06-25 02:57:00,83.5,29.3,-100.00,WSW,240,4.0,12.0,14,0.00,,,0.00,0.0,meteohub,2013-06-25 06:57:00,
2013-06-25 03:02:00,83.7,25.7,-100.00,South,180,7.0,12.0,12,0.00,,,0.00,0.0,meteohub,2013-06-25 07:02:00,
2013-06-25 03:07:00,82.8,22.8,-100.00,SE,146,0.0,12.0,11,0.00,,,0.00,0.0,meteohub,2013-06-25 07:07:00,
2013-06-25 03:12:00,82.0,20.1,-100.00,SE,142,1.0,12.0,10,0.00,,,0.00,0.0,meteohub,2013-06-25 07:12:00,
2013-06-25 03:17:00,81.7,22.1,-100.00,SSE,159,1.0,12.0,11,0.00,,,0.00,0.0,meteohub,2013-06-25 07:17:00,
2013-06-25 03:22:00,81.9,22.3,-100.00,South,170,0.0,12.0,11,0.00,,,0.00,0.0,meteohub,2013-06-25 07:22:00,
2013-06-25 03:27:00,81.9,22.3,-100.00,SSE,165,1.0,7.0,11,0.00,,,0.00,0.0,meteohub,2013-06-25 07:27:00,
2013-06-25 03:37:00,81.9,22.3,-100.00,South,170,3.0,7.0,11,0.00,,,0.00,0.0,meteohub,2013-06-25 07:37:00,
2013-06-25 03:42:00,82.2,22.5,-100.00,South,176,6.0,7.0,11,0.00,,,0.00,0.0,meteohub,2013-06-25 07:42:00,
2013-06-25 03:47:00,82.6,24.8,-100.00,SSE,159,0.0,7.0,12,0.00,,,0.00,0.0,meteohub,2013-06-25 07:47:00,
2013-06-25 03:52:00,82.6,26.8,-100.00,South,188,2.0,7.0,13,0.00,,,0.00,0.0,meteohub,2013-06-25 07:52:00,
2013-06-25 03:57:00,82.6,26.8,-100.00,South,175,3.0,9.0,13,0.00,,,0.00,0.0,meteohub,2013-06-25 07:57:00,
2013-06-25 04:02:00,82.6,26.8,-100.00,South,187,5.0,9.0,13,0.00,,,0.00,0.0,meteohub,2013-06-25 08:02:00,
2013-06-25 04:07:00,82.6,26.8,-100.00,SSW,213,0.0,9.0,13,0.00,,,0.00,0.0,meteohub,2013-06-25 08:07:00,
2013-06-25 04:12:00,82.8,25.0,-100.00,ESE,110,5.0,9.0,12,0.00,,,0.00,0.0,meteohub,2013-06-25 08:12:00,
2013-06-25 04:17:00,82.8,25.0,-100.00,South,171,0.0,9.0,12,0.00,,,0.00,0.0,meteohub,2013-06-25 08:17:00,
2013-06-25 04:22:00,82.8,22.8,-100.00,SSE,163,1.0,9.0,11,0.00,,,0.00,0.0,meteohub,2013-06-25 08:22:00,
2013-06-25 04:27:00,82.6,22.8,-100.00,South,171,0.0,7.0,11,0.00,,,0.00,0.0,meteohub,2013-06-25 08:27:00,
2013-06-25 04:32:00,82.6,22.8,-100.00,South,182,2.0,7.0,11,0.00,,,0.00,0.0,meteohub,2013-06-25 08:32:00,
2013-06-25 04:37:00,82.9,23.0,-100.00,South,184,1.0,7.0,11,0.00,,,0.00,0.0,meteohub,2013-06-25 08:37:00,
2013-06-25 04:42:00,82.9,20.8,-100.00,SSE,159,1.0,7.0,10,0.00,,,0.00,0.0,meteohub,2013-06-25 08:42:00,
2013-06-25 04:47:00,82.8,20.7,-100.00,SSE,159,0.0,7.0,10,0.00,,,0.00,0.0,meteohub,2013-06-25 08:47:00,
2013-06-25 04:52:00,82.8,20.7,-100.00,SSE,165,4.0,7.0,10,0.00,,,0.00,0.0,meteohub,2013-06-25 08:52:00,
2013-06-25 05:02:00,82.9,25.2,-100.00,South,169,2.0,6.0,12,0.00,,,0.00,0.0,meteohub,2013-06-25 09:02:00,
2013-06-25 05:07:00,82.9,25.2,-100.00,South,190,3.0,6.0,12,0.00,,,0.00,0.0,meteohub,2013-06-25 09:07:00,
2013-06-25 05:12:00,82.8,25.0,-100.00,SSE,158,2.0,6.0,12,0.00,,,0.00,0.0,meteohub,2013-06-25 09:12:00,
2013-06-25 05:17:00,82.9,25.2,-100.00,ESE,111,4.0,6.0,12,0.00,,,0.00,0.0,meteohub,2013-06-25 09:17:00,
2013-06-25 05:22:00,82.9,25.2,-100.00,South,175,7.0,7.0,12,0.00,,,0.00,0.0,meteohub,2013-06-25 09:22:00,
2013-06-25 05:27:00,82.8,25.0,-100.00,South,171,6.0,9.0,12,0.00,,,0.00,0.0,meteohub,2013-06-25 09:27:00,
2013-06-25 05:32:00,82.8,25.0,-100.00,SSW,202,4.0,9.0,12,0.00,,,0.00,0.0,meteohub,2013-06-25 09:32:00,
2013-06-25 05:37:00,83.1,25.3,-100.00,SSE,149,2.0,9.0,12,0.00,,,0.00,0.0,meteohub,2013-06-25 09:37:00,
2013-06-25 05:42:00,83.1,27.1,-100.00,SW,233,3.0,9.0,13,0.00,,,0.00,0.0,meteohub,2013-06-25 09:42:00,
2013-06-25 05:47:00,82.9,25.2,-100.00,SSW,195,5.0,9.0,12,0.00,,,0.00,0.0,meteohub,2013-06-25 09:47:00,
2013-06-25 05:52:00,82.8,25.0,-100.00,South,178,4.0,9.0,12,0.00,,,0.00,0.0,meteohub,2013-06-25 09:52:00,
2013-06-25 05:57:00,82.8,22.8,-100.00,SSW,209,1.0,9.0,11,0.00,,,0.00,0.0,meteohub,2013-06-25 09:57:00,
2013-06-25 06:02:00,82.9,23.0,-100.00,SSE,165,3.0,9.0,11,0.00,,,0.00,0.0,meteohub,2013-06-25 10:02:00,
2013-06-25 06:07:00,82.9,25.2,-100.00,SSW,200,6.0,9.0,12,0.00,,,0.00,0.0,meteohub,2013-06-25 10:07:00,
2013-06-25 06:12:00,82.8,27.0,-100.00,South,184,0.0,9.0,13,0.00,,,0.00,0.0,meteohub,2013-06-25 10:12:00,
2013-06-25 06:17:00,82.8,27.0,-100.00,SSE,163,4.0,9.0,13,0.00,,,0.00,0.0,meteohub,2013-06-25 10:17:00,
2013-06-25 06:27:00,82.8,27.0,-100.00,SSE,165,4.0,9.0,13,0.00,,,0.00,0.0,meteohub,2013-06-25 10:27:00,
2013-06-25 06:32:00,82.8,25.0,-100.00,SSE,164,0.0,10.0,12,0.00,,,0.00,5.0,meteohub,2013-06-25 10:32:00,
2013-06-25 06:37:00,82.9,27.0,-100.00,SSE,168,4.0,10.0,13,0.00,,,0.00,7.0,meteohub,2013-06-25 10:37:00,
2013-06-25 06:42:00,82.8,25.0,-100.00,South,173,5.0,10.0,12,0.00,,,0.00,11.0,meteohub,2013-06-25 10:42:00,
2013-06-25 06:47:00,82.9,25.2,-100.00,SSW,198,3.0,10.0,12,0.00,,,0.00,14.0,meteohub,2013-06-25 10:47:00,
2013-06-25 06:52:00,82.9,25.2,-100.00,SE,138,3.0,10.0,12,0.00,,,0.00,18.0,meteohub,2013-06-25 10:52:00,
2013-06-25 06:57:00,82.9,25.2,-100.00,SSE,160,2.0,10.0,12,0.00,,,0.00,26.0,meteohub,2013-06-25 10:57:00,
2013-06-25 07:02:00,82.9,25.2,-100.00,SSE,151,0.0,10.0,12,0.00,,,0.00,39.0,meteohub,2013-06-25 11:02:00,
2013-06-25 07:07:00,83.1,23.2,-100.00,SSE,160,3.0,10.0,11,0.00,,,0.00,62.0,meteohub,2013-06-25 11:07:00,
2013-06-25 07:12:00,83.3,23.4,-100.00,South,171,2.0,10.0,11,0.00,,,0.00,65.0,meteohub,2013-06-25 11:12:00,
2013-06-25 07:17:00,83.5,23.4,-100.00,SSE,148,4.0,8.0,11,0.00,,,0.00,49.0,meteohub,2013-06-25 11:17:00,
2013-06-25 07:22:00,83.7,23.5,-100.00,SE,143,2.0,8.0,11,0.00,,,0.00,83.0,meteohub,2013-06-25 11:22:00,
2013-06-25 07:27:00,83.8,27.7,-100.00,SE,145,4.0,8.0,13,0.00,,,0.00,84.0,meteohub,2013-06-25 11:27:00,
2013-06-25 07:32:00,83.8,27.7,-100.00,SSE,156,2.0,8.0,13,0.00,,,0.00,114.0,meteohub,2013-06-25 11:32:00,
2013-06-25 07:37:00,84.0,27.9,-100.00,SSW,195,1.0,8.0,13,0.00,,,0.00,179.0,meteohub,2013-06-25 11:37:00,
2013-06-25 07:42:00,84.2,33.1,-100.00,SSW,204,9.0,9.0,16,0.00,,,0.00,195.0,meteohub,2013-06-25 11:42:00,
2013-06-25 07:47:00,84.6,34.9,-100.00,SSE,150,1.0,8.0,17,0.00,,,0.00,204.0,meteohub,2013-06-25 11:47:00,
2013-06-25 07:52:00,84.4,33.3,-100.00,SSE,148,3.0,10.0,16,0.00,,,0.00,223.0,meteohub,2013-06-25 11:52:00,
2013-06-25 07:57:00,84.6,33.4,-100.00,South,180,8.0,10.0,16,0.00,,,0.00,237.0,meteohub,2013-06-25 11:57:00,
2013-06-25 08:02:00,84.9,33.8,-100.00,South,178,5.0,10.0,16,0.00,,,0.00,262.0,meteohub,2013-06-25 12:02:00,
2013-06-25 08:07:00,84.9,35.2,-100.00,SSW,198,5.0,10.0,17,0.00,,,0.00,127.0,meteohub,2013-06-25 12:07:00,
2013-06-25 08:17:00,85.1,35.4,-100.00,SSE,163,3.0,10.0,17,0.00,,,0.00,330.0,meteohub,2013-06-25 12:17:00,
2013-06-25 08:22:00,85.1,38.1,-100.00,South,175,9.0,9.0,19,0.00,,,0.00,334.0,meteohub,2013-06-25 12:22:00,
2013-06-25 08:27:00,85.5,41.0,-100.00,SSE,157,6.0,9.0,21,0.00,,,0.00,350.0,meteohub,2013-06-25 12:27:00,
2013-06-25 08:32:00,85.5,39.7,-100.00,SSW,200,9.0,9.0,20,0.00,,,0.00,364.0,meteohub,2013-06-25 12:32:00,
2013-06-25 08:37:00,85.6,39.9,-100.00,South,170,4.0,9.0,20,0.00,,,0.00,396.0,meteohub,2013-06-25 12:37:00,
2013-06-25 08:42:00,86.0,40.3,-100.00,SSW,194,6.0,9.0,20,0.00,,,0.00,422.0,meteohub,2013-06-25 12:42:00,
2013-06-25 08:47:00,85.8,41.4,-100.00,SSE,168,4.0,9.0,21,0.00,,,0.00,443.0,meteohub,2013-06-25 12:47:00,
2013-06-25 08:57:00,86.2,42.8,-100.00,SSE,157,1.0,10.0,22,0.00,,,0.00,536.0,meteohub,2013-06-25 12:57:00,
2013-06-25 09:02:00,86.4,39.2,-100.00,South,173,3.0,10.0,19,0.00,,,0.00,557.0,meteohub,2013-06-25 13:02:00,
2013-06-25 09:07:00,86.2,41.7,-100.00,SE,132,5.0,10.0,21,0.00,,,0.00,118.0,meteohub,2013-06-25 13:07:00,
2013-06-25 09:12:00,86.2,40.5,-100.00,South,185,3.0,10.0,20,0.00,,,0.00,606.0,meteohub,2013-06-25 13:12:00,
2013-06-25 09:17:00,86.2,44.1,-100.00,SSW,205,5.0,10.0,23,0.00,,,0.00,640.0,meteohub,2013-06-25 13:17:00,
2013-06-25 09:22:00,86.2,42.8,-100.00,SE,145,7.0,11.0,22,0.00,,,0.00,181.0,meteohub,2013-06-25 13:22:00,
2013-06-25 09:27:00,86.4,43.0,-100.00,SW,219,4.0,11.0,22,0.00,,,0.00,165.0,meteohub,2013-06-25 13:27:00,
2013-06-25 09:32:00,86.7,40.8,-100.00,SW,221,4.0,11.0,20,0.00,,,0.00,652.0,meteohub,2013-06-25 13:32:00,
2013-06-25 09:37:00,86.7,42.1,-100.00,SW,227,6.0,11.0,21,0.00,,,0.00,650.0,meteohub,2013-06-25 13:37:00,
2013-06-25 09:42:00,87.1,43.7,-100.00,SSW,211,5.0,11.0,22,0.00,,,0.00,638.0,meteohub,2013-06-25 13:42:00,
2013-06-25 09:47:00,87.3,43.7,-100.00,SW,229,4.0,11.0,22,0.00,,,0.00,666.0,meteohub,2013-06-25 13:47:00,
2013-06-25 09:52:00,87.1,44.8,-100.00,South,177,6.0,9.0,23,0.00,,,0.00,789.0,meteohub,2013-06-25 13:52:00,
2013-06-25 09:57:00,87.1,43.7,-100.00,South,180,5.0,9.0,22,0.00,,,0.00,691.0,meteohub,2013-06-25 13:57:00,
2013-06-25 10:02:00,87.4,45.1,-100.00,SW,226,5.0,9.0,23,0.00,,,0.00,707.0,meteohub,2013-06-25 14:02:00,
2013-06-25 10:07:00,87.6,47.5,-100.00,SSE,163,3.0,9.0,25,0.00,,,0.00,721.0,meteohub,2013-06-25 14:07:00,
2013-06-25 10:12:00,87.6,45.3,-100.00,SSW,195,3.0,9.0,23,0.00,,,0.00,770.0,meteohub,2013-06-25 14:12:00,
2013-06-25 10:17:00,88.2,46.8,-100.00,SSE,150,2.0,9.0,24,0.00,,,0.00,809.0,meteohub,2013-06-25 14:17:00,
2013-06-25 10:22:00,87.4,46.2,-100.00,SE,130,6.0,9.0,24,0.00,,,0.00,165.0,meteohub,2013-06-25 14:22:00,
2013-06-25 10:32:00,86.2,42.8,-100.00,SSE,163,4.0,9.0,22,0.00,,,0.00,211.0,meteohub,2013-06-25 14:32:00,
2013-06-25 10:37:00,86.5,43.2,-100.00,SSW,202,6.0,9.0,22,0.00,,,0.00,939.0,meteohub,2013-06-25 14:37:00,
2013-06-25 10:42:00,87.3,52.0,-100.00,SSE,148,3.0,11.0,30,0.00,,,0.00,925.0,meteohub,2013-06-25 14:42:00,
2013-06-25 10:47:00,87.4,52.2,-100.00,South,175,1.0,11.0,30,0.00,,,0.00,904.0,meteohub,2013-06-25 14:47:00,
2013-06-25 10:52:00,87.4,53.1,-100.00,SE,140,6.0,11.0,31,0.00,,,0.00,877.0,meteohub,2013-06-25 14:52:00,
2013-06-25 10:57:00,87.1,56.1,-100.00,SSW,192,5.0,11.0,35,0.00,,,0.00,905.0,meteohub,2013-06-25 14:57:00,
2013-06-25 11:02:00,87.1,54.5,-100.00,South,173,5.0,11.0,33,0.00,,,0.00,879.0,meteohub,2013-06-25 15:02:00,
2013-06-25 11:07:00,86.7,56.7,-100.00,SE,130,10.0,12.0,36,0.00,,,0.00,891.0,meteohub,2013-06-25 15:07:00,
2013-06-25 11:12:00,87.1,52.7,-100.00,SSW,200,0.0,12.0,31,0.00,,,0.00,886.0,meteohub,2013-06-25 15:12:00,
2013-06-25 11:17:00,87.4,54.0,-100.00,South,191,4.0,12.0,32,0.00,,,0.00,898.0,meteohub,2013-06-25 15:17:00,
2013-06-25 11:22:00,87.4,54.9,-100.00,SSE,147,6.0,12.0,33,0.00,,,0.00,932.0,meteohub,2013-06-25 15:22:00,
2013-06-25 11:27:00,87.4,54.9,-100.00,SE,144,6.0,12.0,33,0.00,,,0.00,981.0,meteohub,2013-06-25 15:27:00,
2013-06-25 11:32:00,88.2,50.9,-100.00,SE,126,10.0,12.0,28,0.00,,,0.00,1095.0,meteohub,2013-06-25 15:32:00,
2013-06-25 11:37:00,88.2,50.9,-100.00,SE,146,6.0,12.0,28,0.00,,,0.00,376.0,meteohub,2013-06-25 15:37:00,
2013-06-25 11:42:00,87.6,51.4,-100.00,SSE,157,9.0,12.0,29,0.00,,,0.00,1172.0,meteohub,2013-06-25 15:42:00,
2013-06-25 11:47:00,87.3,52.9,-100.00,South,171,6.0,12.0,31,0.00,,,0.00,1072.0,meteohub,2013-06-25 15:47:00,
2013-06-25 11:52:00,87.1,50.9,-100.00,SW,225,5.0,12.0,29,0.00,,,0.00,1028.0,meteohub,2013-06-25 15:52:00,
2013-06-25 11:57:00,87.3,53.8,-100.00,SSW,201,4.0,12.0,32,0.00,,,0.00,1078.0,meteohub,2013-06-25 15:57:00,
2013-06-25 12:02:00,87.3,57.0,-100.00,SW,219,6.0,12.0,36,0.00,,,0.00,986.0,meteohub,2013-06-25 16:02:00,
2013-06-25 12:07:00,87.3,56.3,-100.00,South,185,6.0,15.0,35,0.00,,,0.00,969.0,meteohub,2013-06-25 16:07:00,
2013-06-25 12:12:00,87.4,54.9,-100.00,South,176,6.0,15.0,33,0.00,,,0.00,963.0,meteohub,2013-06-25 16:12:00,
2013-06-25 12:17:00,87.6,54.1,-100.00,SSW,196,5.0,15.0,32,0.00,,,0.00,969.0,meteohub,2013-06-25 16:17:00,
2013-06-25 12:22:00,87.6,52.3,-100.00,SSE,158,5.0,15.0,30,0.00,,,0.00,974.0,meteohub,2013-06-25 16:22:00,
2013-06-25 12:27:00,87.6,50.5,-100.00,SSW,202,8.0,15.0,28,0.00,,,0.00,977.0,meteohub,2013-06-25 16:27:00,
2013-06-25 12:32:00,87.8,49.6,-100.00,South,178,6.0,15.0,27,0.00,,,0.00,984.0,meteohub,2013-06-25 16:32:00,
2013-06-25 12:37:00,87.6,52.3,-100.00,South,178,4.0,15.0,30,0.00,,,0.00,990.0,meteohub,2013-06-25 16:37:00,
2013-06-25 12:42:00,87.6,54.1,-100.00,NNW,347,5.0,12.0,32,0.00,,,0.00,988.0,meteohub,2013-06-25 16:42:00,
2013-06-25 12:47:00,87.3,56.3,-100.00,SW,217,7.0,12.0,35,0.00,,,0.00,988.0,meteohub,2013-06-25 16:47:00,
2013-06-25 12:52:00,87.4,55.6,-100.00,SW,223,5.0,12.0,34,0.00,,,0.00,995.0,meteohub,2013-06-25 16:52:00,
2013-06-25 12:57:00,87.6,55.8,-100.00,SW,224,8.0,12.0,34,0.00,,,0.00,1009.0,meteohub,2013-06-25 16:57:00,
2013-06-25 13:02:00,87.4,54.9,-100.00,SE,136,7.0,14.0,33,0.00,,,0.00,1018.0,meteohub,2013-06-25 17:02:00,
2013-06-25 13:07:00,87.4,54.0,-100.00,SSW,194,2.0,14.0,32,0.00,,,0.00,1016.0,meteohub,2013-06-25 17:07:00,
2013-06-25 13:17:00,87.4,59.4,-100.00,SW,217,4.0,14.0,39,0.00,,,0.00,1002.0,meteohub,2013-06-25 17:17:00,
2013-06-25 13:22:00,87.6,58.8,-100.00,SSE,149,5.0,14.0,38,0.00,,,0.00,1018.0,meteohub,2013-06-25 17:22:00,
2013-06-25 13:27:00,87.3,57.0,-100.00,SSW,209,5.0,13.0,36,0.00,,,0.00,1021.0,meteohub,2013-06-25 17:27:00,
2013-06-25 13:32:00,88.0,57.7,-100.00,SSE,149,2.0,13.0,36,0.00,,,0.00,1020.0,meteohub,2013-06-25 17:32:00,
2013-06-25 13:37:00,88.0,58.5,-100.00,SE,138,7.0,13.0,37,0.00,,,0.00,1014.0,meteohub,2013-06-25 17:37:00,
2013-06-25 13:42:00,87.8,55.9,-100.00,SSW,196,6.0,13.0,34,0.00,,,0.00,1016.0,meteohub,2013-06-25 17:42:00,
2013-06-25 13:47:00,88.3,57.2,-100.00,SE,130,7.0,15.0,35,0.00,,,0.00,1027.0,meteohub,2013-06-25 17:47:00,
2013-06-25 13:57:00,88.5,57.4,-100.00,SSE,153,5.0,15.0,35,0.00,,,0.00,1086.0,meteohub,2013-06-25 17:57:00,
2013-06-25 14:02:00,88.3,54.7,-100.00,South,186,4.0,15.0,32,0.00,,,0.00,1086.0,meteohub,2013-06-25 18:02:00,
2013-06-25 14:07:00,88.0,58.5,-100.00,SSW,195,9.0,12.0,37,0.00,,,0.00,1074.0,meteohub,2013-06-25 18:07:00,
2013-06-25 14:12:00,88.0,54.5,-100.00,SSW,205,3.0,12.0,32,0.00,,,0.00,1039.0,meteohub,2013-06-25 18:12:00,
2013-06-25 14:17:00,87.8,53.4,-100.00,South,169,12.0,12.0,31,0.00,,,0.00,1021.0,meteohub,2013-06-25 18:17:00,
2013-06-25 14:22:00,88.3,55.6,-100.00,South,191,5.0,12.0,33,0.00,,,0.00,1058.0,meteohub,2013-06-25 18:22:00,
2013-06-25 14:27:00,88.3,58.8,-100.00,ESE,114,5.0,15.0,37,0.00,,,0.00,1027.0,meteohub,2013-06-25 18:27:00,
2013-06-25 14:32:00,88.3,54.7,-100.00,South,178,7.0,15.0,32,0.00,,,0.00,1032.0,meteohub,2013-06-25 18:32:00,
2013-06-25 14:42:00,88.2,59.4,-100.00,SSE,159,5.0,15.0,38,0.00,,,0.00,1025.0,meteohub,2013-06-25 18:42:00,
2013-06-25 14:47:00,88.5,60.4,-100.00,SSE,167,9.0,13.0,39,0.00,,,0.00,1023.0,meteohub,2013-06-25 18:47:00,
2013-06-25 14:52:00,88.5,60.4,-100.00,SE,146,10.0,13.0,39,0.00,,,0.00,972.0,meteohub,2013-06-25 18:52:00,
2013-06-25 14:57:00,88.2,61.5,-100.00,South,173,10.0,13.0,41,0.00,,,0.00,719.0,meteohub,2013-06-25 18:57:00,
2013-06-25 15:02:00,88.0,57.7,-100.00,SE,128,11.0,13.0,36,0.00,,,0.00,680.0,meteohub,2013-06-25 19:02:00,
2013-06-25 15:07:00,87.6,56.7,-100.00,ESE,122,7.0,15.0,35,0.00,,,0.00,840.0,meteohub,2013-06-25 19:07:00,
2013-06-25 15:12:00,87.4,54.9,-100.00,SSW,203,7.0,15.0,33,0.00,,,0.00,939.0,meteohub,2013-06-25 19:12:00,
2013-06-25 15:17:00,87.6,55.0,-100.00,SSE,159,6.0,15.0,33,0.00,,,0.00,935.0,meteohub,2013-06-25 19:17:00,
2013-06-25 15:22:00,87.8,58.3,-100.00,South,183,11.0,15.0,37,0.00,,,0.00,926.0,meteohub,2013-06-25 19:22:00,
2013-06-25 15:27:00,88.2,55.4,-100.00,SE,134,6.0,12.0,33,0.00,,,0.00,856.0,meteohub,2013-06-25 19:27:00,
2013-06-25 15:32:00,88.2,54.5,-100.00,SSW,200,4.0,12.0,32,0.00,,,0.00,1037.0,meteohub,2013-06-25 19:32:00,
2013-06-25 15:37:00,88.3,54.7,-100.00,SSW,196,10.0,12.0,32,0.00,,,0.00,976.0,meteohub,2013-06-25 19:37:00,
2013-06-25 15:42:00,88.3,55.6,-100.00,South,189,9.0,12.0,33,0.00,,,0.00,789.0,meteohub,2013-06-25 19:42:00,
2013-06-25 15:47:00,87.8,51.6,-100.00,SSW,211,4.0,11.0,29,0.00,,,0.00,735.0,meteohub,2013-06-25 19:47:00,
2013-06-25 15:57:00,88.0,56.1,-100.00,South,173,6.0,11.0,34,0.00,,,0.00,724.0,meteohub,2013-06-25 19:57:00,
2013-06-25 16:02:00,88.2,50.0,-100.00,SSW,198,5.0,11.0,27,0.00,,,0.00,814.0,meteohub,2013-06-25 20:02:00,
2013-06-25 16:07:00,87.6,49.5,-100.00,ESE,120,7.0,13.0,27,0.00,,,0.00,765.0,meteohub,2013-06-25 20:07:00,
2013-06-25 16:12:00,87.4,54.0,-100.00,SSW,192,6.0,13.0,32,0.00,,,0.00,744.0,meteohub,2013-06-25 20:12:00,
2013-06-25 16:17:00,87.1,53.6,-100.00,South,182,7.0,13.0,32,0.00,,,0.00,691.0,meteohub,2013-06-25 20:17:00,
2013-06-25 16:22:00,86.7,55.8,-100.00,SSE,164,8.0,13.0,35,0.00,,,0.00,691.0,meteohub,2013-06-25 20:22:00,
2013-06-25 16:32:00,87.1,52.7,-100.00,SE,128,6.0,14.0,31,0.00,,,0.00,703.0,meteohub,2013-06-25 20:32:00,
2013-06-25 16:37:00,87.1,50.0,-100.00,SE,144,9.0,14.0,28,0.00,,,0.00,714.0,meteohub,2013-06-25 20:37:00,
2013-06-25 16:42:00,86.7,45.7,-100.00,SSE,161,7.0,14.0,24,0.00,,,0.00,900.0,meteohub,2013-06-25 20:42:00,
2013-06-25 16:47:00,87.4,41.4,-100.00,SSW,199,10.0,15.0,20,0.00,,,0.00,900.0,meteohub,2013-06-25 20:47:00,
2013-06-25 16:52:00,87.3,48.2,-100.00,South,186,6.0,15.0,26,0.00,,,0.00,744.0,meteohub,2013-06-25 20:52:00,
2013-06-25 16:57:00,86.7,50.7,-100.00,SSW,201,4.0,15.0,29,0.00,,,0.00,675.0,meteohub,2013-06-25 20:57:00,
2013-06-25 17:02:00,86.5,51.4,-100.00,SSE,152,8.0,15.0,30,0.00,,,0.00,657.0,meteohub,2013-06-25 21:02:00,
2013-06-25 17:07:00,86.7,51.6,-100.00,SE,132,9.0,16.0,30,0.00,,,0.00,617.0,meteohub,2013-06-25 21:07:00,
2013-06-25 17:12:00,87.3,52.0,-100.00,SW,234,3.0,16.0,30,0.00,,,0.00,524.0,meteohub,2013-06-25 21:12:00,
2013-06-25 17:17:00,87.1,49.1,-100.00,South,173,6.0,16.0,27,0.00,,,0.00,434.0,meteohub,2013-06-25 21:17:00,
2013-06-25 17:22:00,87.1,45.9,-100.00,SSW,198,10.0,16.0,24,0.00,,,0.00,302.0,meteohub,2013-06-25 21:22:00,
2013-06-25 17:27:00,86.7,42.1,-100.00,SSW,209,6.0,15.0,21,0.00,,,0.00,264.0,meteohub,2013-06-25 21:27:00,
2013-06-25 17:32:00,86.5,39.4,-100.00,SSW,203,11.0,15.0,19,0.00,,,0.00,220.0,meteohub,2013-06-25 21:32:00,
2013-06-25 17:37:00,86.4,40.6,-100.00,South,173,10.0,15.0,20,0.00,,,0.00,190.0,meteohub,2013-06-25 21:37:00,
2013-06-25 17:42:00,86.0,40.3,-100.00,SSE,151,5.0,15.0,20,0.00,,,0.00,162.0,meteohub,2013-06-25 21:42:00,
2013-06-25 17:47:00,85.5,43.5,-100.00,SSW,206,8.0,15.0,23,0.00,,,0.00,149.0,meteohub,2013-06-25 21:47:00,
2013-06-25 17:52:00,85.5,45.7,-100.00,SSE,163,11.0,15.0,25,0.00,,,0.00,144.0,meteohub,2013-06-25 21:52:00,
2013-06-25 17:57:00,85.5,43.5,-100.00,SW,232,7.0,15.0,23,0.00,,,0.00,127.0,meteohub,2013-06-25 21:57:00,
2013-06-25 18:02:00,85.8,40.1,-100.00,SE,142,1.0,15.0,20,0.00,,,0.00,130.0,meteohub,2013-06-25 22:02:00,
2013-06-25 18:07:00,86.2,37.8,-100.00,SSW,203,6.0,15.0,18,0.00,,,0.00,125.0,meteohub,2013-06-25 22:07:00,
2013-06-25 18:12:00,86.4,36.3,-100.00,SSW,192,2.0,15.0,17,0.00,,,0.00,125.0,meteohub,2013-06-25 22:12:00,
2013-06-25 18:17:00,85.6,38.7,-100.00,SSE,157,9.0,15.0,19,0.00,,,0.00,123.0,meteohub,2013-06-25 22:17:00,
2013-06-25 18:22:00,85.6,37.2,-100.00,SSE,168,2.0,15.0,18,0.00,,,0.00,120.0,meteohub,2013-06-25 22:22:00,
2013-06-25 18:27:00,85.6,39.9,-100.00,South,183,5.0,15.0,20,0.00,,,0.00,118.0,meteohub,2013-06-25 22:27:00,
2013-06-25 18:32:00,85.8,36.0,-100.00,SSW,200,6.0,15.0,17,0.00,,,0.00,113.0,meteohub,2013-06-25 22:32:00,
2013-06-25 18:37:00,86.2,36.3,-100.00,South,171,2.0,15.0,17,0.00,,,0.00,105.0,meteohub,2013-06-25 22:37:00,
2013-06-25 18:42:00,86.2,34.7,-100.00,South,170,7.0,16.0,16,0.00,,,0.00,102.0,meteohub,2013-06-25 22:42:00,
2013-06-25 18:47:00,86.4,33.3,-100.00,SSE,166,7.0,16.0,15,0.00,,,0.00,97.0,meteohub,2013-06-25 22:47:00,
2013-06-25 18:52:00,86.2,31.5,-100.00,SE,140,9.0,16.0,14,0.00,,,0.00,90.0,meteohub,2013-06-25 22:52:00,
2013-06-25 18:57:00,86.2,29.7,-100.00,SSW,192,10.0,16.0,13,0.00,,,0.00,86.0,meteohub,2013-06-25 22:57:00,
2013-06-25 19:07:00,86.0,29.5,-100.00,SSW,198,11.0,11.0,13,0.00,,,0.00,76.0,meteohub,2013-06-25 23:07:00,
2013-06-25 19:17:00,85.5,28.9,-100.00,South,172,10.0,11.0,13,0.00,,,0.00,40.0,meteohub,2013-06-25 23:17:00,
2013-06-25 19:22:00,85.1,26.8,-100.00,South,179,11.0,11.0,12,0.00,,,0.00,46.0,meteohub,2013-06-25 23:22:00,
2013-06-25 19:27:00,84.9,28.6,-100.00,SSE,156,10.0,13.0,13,0.00,,,0.00,39.0,meteohub,2013-06-25 23:27:00,
2013-06-25 19:32:00,84.7,26.4,-100.00,SSE,166,5.0,13.0,12,0.00,,,0.00,30.0,meteohub,2013-06-25 23:32:00,
2013-06-25 19:37:00,84.0,25.9,-100.00,ESE,115,11.0,13.0,12,0.00,,,0.00,32.0,meteohub,2013-06-25 23:37:00,
2013-06-25 19:42:00,83.5,32.5,-100.00,South,188,6.0,13.0,16,0.00,,,0.00,26.0,meteohub,2013-06-25 23:42:00,
2013-06-25 19:47:00,83.7,38.3,-100.00,SE,137,6.0,17.0,20,0.00,,,0.00,21.0,meteohub,2013-06-25 23:47:00,
2013-06-25 19:52:00,83.5,38.1,-100.00,South,170,6.0,17.0,20,0.00,,,0.00,18.0,meteohub,2013-06-25 23:52:00,
2013-06-25 19:57:00,83.5,36.9,-100.00,SSW,211,11.0,17.0,19,0.00,,,0.00,16.0,meteohub,2013-06-25 23:57:00,
2013-06-25 20:02:00,83.5,39.4,-100.00,South,186,4.0,17.0,21,0.00,,,0.00,12.0,meteohub,2013-06-26 00:02:00,
2013-06-25 20:07:00,83.1,35.2,-100.00,SSE,152,11.0,17.0,18,0.00,,,0.00,9.0,meteohub,2013-06-26 00:07:00,
2013-06-25 20:12:00,82.9,33.6,-100.00,South,190,5.0,15.0,17,0.00,,,0.00,0.0,meteohub,2013-06-26 00:12:00,
2013-06-25 20:17:00,83.5,35.6,-100.00,SSE,165,3.0,15.0,18,0.00,,,0.00,0.0,meteohub,2013-06-26 00:17:00,
2013-06-25 20:22:00,83.7,34.2,-100.00,SSE,155,3.0,15.0,17,0.00,,,0.00,0.0,meteohub,2013-06-26 00:22:00,
2013-06-25 20:27:00,83.8,35.8,-100.00,South,171,5.0,15.0,18,0.00,,,0.00,0.0,meteohub,2013-06-26 00:27:00,
2013-06-25 20:32:00,83.7,32.7,-100.00,SSE,148,5.0,15.0,16,0.00,,,0.00,0.0,meteohub,2013-06-26 00:32:00,
2013-06-25 20:37:00,83.7,27.7,-100.00,South,171,2.0,11.0,13,0.00,,,0.00,0.0,meteohub,2013-06-26 00:37:00,
2013-06-25 20:42:00,83.8,27.7,-100.00,South,171,0.0,11.0,13,0.00,,,0.00,0.0,meteohub,2013-06-26 00:42:00,
2013-06-25 20:47:00,83.8,25.9,-100.00,SSE,168,0.0,11.0,12,0.00,,,0.00,0.0,meteohub,2013-06-26 00:47:00,
2013-06-25 20:52:00,84.2,26.1,-100.00,South,169,0.0,11.0,12,0.00,,,0.00,0.0,meteohub,2013-06-26 00:52:00,
2013-06-25 20:57:00,84.2,26.1,-100.00,SSE,167,0.0,9.0,12,0.00,,,0.00,0.0,meteohub,2013-06-26 00:57:00,
2013-06-25 21:02:00,84.0,23.9,-100.00,SSW,202,4.0,9.0,11,0.00,,,0.00,0.0,meteohub,2013-06-26 01:02:00,
2013-06-25 21:07:00,84.4,24.1,-100.00,SSW,213,4.0,9.0,11,0.00,,,0.00,0.0,meteohub,2013-06-26 01:07:00,
2013-06-25 21:17:00,83.7,21.4,-100.00,South,178,0.0,9.0,10,0.00,,,0.00,0.0,meteohub,2013-06-26 01:17:00,
2013-06-25 21:22:00,83.7,21.4,-100.00,SSW,204,4.0,9.0,10,0.00,,,0.00,0.0,meteohub,2013-06-26 01:22:00,
2013-06-25 21:27:00,83.8,23.7,-100.00,SSE,159,3.0,9.0,11,0.00,,,0.00,0.0,meteohub,2013-06-26 01:27:00,
2013-06-25 21:32:00,83.8,23.7,-100.00,South,180,7.0,9.0,11,0.00,,,0.00,0.0,meteohub,2013-06-26 01:32:00,
2013-06-25 21:37:00,83.8,25.9,-100.00,SSE,159,0.0,10.0,12,0.00,,,0.00,0.0,meteohub,2013-06-26 01:37:00,
2013-06-25 21:42:00,84.0,23.9,-100.00,SSE,159,1.0,10.0,11,0.00,,,0.00,0.0,meteohub,2013-06-26 01:42:00,
2013-06-25 21:47:00,84.0,23.9,-100.00,SE,134,0.0,10.0,11,0.00,,,0.00,0.0,meteohub,2013-06-26 01:47:00,
2013-06-25 21:52:00,84.0,25.9,-100.00,SSE,153,3.0,10.0,12,0.00,,,0.00,0.0,meteohub,2013-06-26 01:52:00,
2013-06-25 21:57:00,83.8,23.7,-100.00,South,188,1.0,10.0,11,0.00,,,0.00,0.0,meteohub,2013-06-26 01:57:00,
2013-06-25 22:02:00,84.0,23.9,-100.00,South,180,0.0,7.0,11,0.00,,,0.00,0.0,meteohub,2013-06-26 02:02:00,
2013-06-25 22:07:00,83.8,25.9,-100.00,South,169,1.0,7.0,12,0.00,,,0.00,0.0,meteohub,2013-06-26 02:07:00,
2013-06-25 22:12:00,83.8,23.7,-100.00,South,172,4.0,7.0,11,0.00,,,0.00,0.0,meteohub,2013-06-26 02:12:00,
2013-06-25 22:17:00,83.8,23.7,-100.00,SSE,152,3.0,7.0,11,0.00,,,0.00,0.0,meteohub,2013-06-26 02:17:00,
2013-06-25 22:22:00,84.0,23.9,-100.00,SSE,154,3.0,7.0,11,0.00,,,0.00,0.0,meteohub,2013-06-26 02:22:00,
2013-06-25 22:27:00,84.0,23.9,-100.00,SSE,155,0.0,7.0,11,0.00,,,0.00,0.0,meteohub,2013-06-26 02:27:00,
2013-06-25 22:32:00,83.8,21.4,-100.00,SSE,162,3.0,7.0,10,0.00,,,0.00,0.0,meteohub,2013-06-26 02:32:00,
2013-06-25 22:37:00,83.8,21.4,-100.00,South,178,3.0,7.0,10,0.00,,,0.00,0.0,meteohub,2013-06-26 02:37:00,
2013-06-25 22:42:00,84.0,21.6,-100.00,SSE,155,5.0,7.0,10,0.00,,,0.00,0.0,meteohub,2013-06-26 02:42:00,
2013-06-25 22:47:00,83.8,21.4,-100.00,SSE,150,2.0,7.0,10,0.00,,,0.00,0.0,meteohub,2013-06-26 02:47:00,
2013-06-25 22:57:00,83.8,19.0,-100.00,SSE,163,3.0,7.0,9,0.00,,,0.00,0.0,meteohub,2013-06-26 02:57:00,
2013-06-25 23:02:00,84.2,19.2,-100.00,South,176,5.0,7.0,9,0.00,,,0.00,0.0,meteohub,2013-06-26 03:02:00,
2013-06-25 23:07:00,84.0,19.0,-100.00,SSE,159,4.0,7.0,9,0.00,,,0.00,0.0,meteohub,2013-06-26 03:07:00,
2013-06-25 23:12:00,83.8,19.0,-100.00,South,175,5.0,7.0,9,0.00,,,0.00,0.0,meteohub,2013-06-26 03:12:00,
2013-06-25 23:17:00,84.0,19.0,-100.00,South,174,4.0,7.0,9,0.00,,,0.00,0.0,meteohub,2013-06-26 03:17:00,
2013-06-25 23:22:00,84.2,19.2,-100.00,SSE,156,1.0,7.0,9,0.00,,,0.00,0.0,meteohub,2013-06-26 03:22:00,
2013-06-25 23:27:00,84.0,19.0,-100.00,South,177,0.0,7.0,9,0.00,,,0.00,0.0,meteohub,2013-06-26 03:27:00,
2013-06-25 23:32:00,84.0,19.0,-100.00,SSE,155,3.0,9.0,9,0.00,,,0.00,0.0,meteohub,2013-06-26 03:32:00,
2013-06-25 23:37:00,84.2,19.2,-100.00,South,172,5.0,9.0,9,0.00,,,0.00,0.0,meteohub,2013-06-26 03:37:00,
2013-06-25 23:42:00,84.4,21.9,-100.00,South,178,4.0,9.0,10,0.00,,,0.00,0.0,meteohub,2013-06-26 03:42:00,
2013-06-25 23:47:00,84.2,21.7,-100.00,SSE,159,5.0,9.0,10,0.00,,,0.00,0.0,meteohub,2013-06-26 03:47:00,
2013-06-25 23:52:00,84.4,24.1,-100.00,SSE,159,2.0,9.0,11,0.00,,,0.00,0.0,meteohub,2013-06-26 03:52:00,
2013-06-25 23:57:00,84.4,26.2,-100.00,South,173,0.0,9.0,12,0.00,,,0.00,0.0,meteohub,2013-06-26 03:57:00,